Time;durP1;ratioP1;P1;durP2;ratioP2;P2;SDS_P1;SDS_P2;PMS_P1;PMS_P2;Temp;Humidity;BMP_temperature;BMP_pressure;BME280_temperature;BME280_humidity;BME280_pressure;Samples;Min_cycle;Max_cycle;Signal;HPM_P1;HPM_P2
2022/03/03 00:00:47;;;;;;;;;;;;;;;18.11;54.46;100083.91;2075067;28;19914;-66
2022/03/03 00:01:47;;;;;;;;;;;;;;;18.10;54.44;100077.56;2074522;28;19914;-65
2022/03/03 00:02:48;;;;;;;;;;;;;;;18.10;54.34;100076.69;2074669;28;20312;-65
2022/03/03 00:03:48;;;;;;;;;;;;;;;18.11;54.48;100089.34;2075189;28;19914;-66
2022/03/03 00:04:48;;;;;;;;;;;;;;;18.09;54.36;100075.84;2066349;28;19918;-66
2022/03/03 00:05:48;;;;;;;;;;;;;;;18.09;54.43;100075.00;2065938;28;19961;-66
2022/03/03 00:06:49;;;;;;;;;;;;;;;18.08;54.54;100074.13;2074676;28;19913;-67
2022/03/03 00:07:49;;;;;;;;;;;;;;;18.09;54.45;100069.53;2075025;28;19920;-66
2022/03/03 00:08:49;;;;;;;;;;;;;;;18.10;54.26;100071.25;2074661;28;19913;-64
2022/03/03 00:09:50;;;;;;;;;;;;;;;18.11;54.48;100068.38;2065941;28;20385;-64
2022/03/03 00:10:51;;;;;;;;;;;;;;;18.11;54.42;100067.53;2061331;28;19985;-65
2022/03/03 00:11:51;;;;;;;;;;;;;;;18.11;54.40;100064.78;2058746;28;20400;-63
2022/03/03 00:12:52;;;;;;;;;;;;;;;18.10;54.20;100071.25;2056146;28;19918;-65
2022/03/03 00:13:52;;;;;;;;;;;;;;;18.08;54.42;100068.69;2068089;28;20591;-65
2022/03/03 00:14:52;;;;;;;;;;;;;;;18.05;54.41;100068.09;2062611;28;19960;-64
2022/03/03 00:15:53;;;;;;;;;;;;;;;18.03;54.34;100062.78;2065958;28;19913;-66
2022/03/03 00:16:53;;;;;;;;;;;;;;;18.03;54.09;100064.63;2061406;28;19913;-65
2022/03/03 00:17:53;;;;;;;;;;;;;;;18.00;54.35;100072.09;2066366;28;19914;-65
2022/03/03 00:18:54;;;;;;;;;;;;;;;17.99;54.23;100069.53;2068166;28;19924;-66
2022/03/03 00:19:54;;;;;;;;;;;;;;;17.96;54.13;100062.50;2058400;28;19929;-65
2022/03/03 00:20:54;;;;;;;;;;;;;;;17.95;54.18;100063.47;2050378;28;19914;-65
2022/03/03 00:21:55;;;;;;;;;;;;;;;17.95;54.23;100060.75;2057018;28;19972;-65
2022/03/03 00:22:55;;;;;;;;;;;;;;;17.95;54.21;100058.03;2069874;28;19917;-65
2022/03/03 00:23:55;;;;;;;;;;;;;;;17.93;54.26;100060.06;2066899;28;19991;-64
2022/03/03 00:24:56;;;;;;;;;;;;;;;17.94;54.33;100061.78;2066366;28;19917;-65
2022/03/03 00:25:56;;;;;;;;;;;;;;;17.95;54.34;100052.56;2065560;28;19975;-65
2022/03/03 00:26:56;;;;;;;;;;;;;;;17.94;54.15;100056.31;2068810;28;19917;-65
2022/03/03 00:27:57;;;;;;;;;;;;;;;17.94;54.24;100050.00;2057863;28;20225;-65
2022/03/03 00:28:57;;;;;;;;;;;;;;;17.93;54.33;100053.72;2059134;28;19913;-65
2022/03/03 00:29:57;;;;;;;;;;;;;;;17.91;54.29;100045.72;2063667;28;19921;-66
2022/03/03 00:30:58;;;;;;;;;;;;;;;17.92;54.40;100052.00;2064901;28;20592;-65
2022/03/03 00:31:58;;;;;;;;;;;;;;;17.91;54.35;100053.88;2064423;28;20156;-65
2022/03/03 00:32:58;;;;;;;;;;;;;;;17.90;54.37;100046.69;2063230;28;19922;-65
2022/03/03 00:33:59;;;;;;;;;;;;;;;17.90;54.28;100054.88;2066674;28;20247;-65
2022/03/03 00:34:59;;;;;;;;;;;;;;;17.89;54.20;100050.44;2064966;28;19917;-65
2022/03/03 00:35:59;;;;;;;;;;;;;;;17.89;54.50;100046.84;2066819;28;20033;-65
2022/03/03 00:37:00;;;;;;;;;;;;;;;17.89;54.37;100042.25;2066293;28;20421;-65
2022/03/03 00:38:00;;;;;;;;;;;;;;;17.89;54.26;100035.94;2067997;28;19925;-66
2022/03/03 00:39:01;;;;;;;;;;;;;;;17.88;54.30;100039.66;2063979;28;19918;-65
2022/03/03 00:40:02;;;;;;;;;;;;;;;17.89;54.24;100034.06;2057978;28;20363;-64
2022/03/03 00:41:03;;;;;;;;;;;;;;;17.87;54.49;100033.34;2056367;28;19922;-65
2022/03/03 00:42:03;;;;;;;;;;;;;;;17.87;54.43;100036.09;2065973;28;20531;-65
2022/03/03 00:43:04;;;;;;;;;;;;;;;17.86;54.40;100026.19;2065694;28;19921;-66
2022/03/03 00:44:06;;;;;;;;;;;;;;;17.87;54.40;100038.81;2066559;28;19921;-65
2022/03/03 00:45:07;;;;;;;;;;;;;;;17.87;54.30;100038.81;2064527;28;19910;-64
2022/03/03 00:46:07;;;;;;;;;;;;;;;17.88;54.32;100035.06;2060235;28;19968;-65
2022/03/03 00:47:07;;;;;;;;;;;;;;;17.87;54.53;100033.34;2061338;28;20472;-65
2022/03/03 00:48:07;;;;;;;;;;;;;;;17.87;54.53;100033.34;2067925;28;19913;-65
2022/03/03 00:49:08;;;;;;;;;;;;;;;17.86;54.37;100028.91;2059403;28;19977;-65
2022/03/03 00:50:08;;;;;;;;;;;;;;;17.86;54.28;100026.19;2057350;28;19910;-65
2022/03/03 00:51:09;;;;;;;;;;;;;;;17.85;54.39;100024.44;2066987;28;19922;-65
2022/03/03 00:52:09;;;;;;;;;;;;;;;17.86;54.25;100025.31;2066243;28;19912;-64
2022/03/03 00:53:10;;;;;;;;;;;;;;;17.84;54.21;100028.19;2060074;28;19976;-65
2022/03/03 00:54:10;;;;;;;;;;;;;;;17.85;54.48;100024.44;2058132;28;19918;-65
2022/03/03 00:55:10;;;;;;;;;;;;;;;17.84;54.21;100028.19;2069291;28;19918;-65
2022/03/03 00:56:11;;;;;;;;;;;;;;;17.84;54.44;100028.19;2064683;28;19936;-64
2022/03/03 00:57:11;;;;;;;;;;;;;;;17.84;54.38;100028.19;2067461;28;19933;-65
2022/03/03 00:58:11;;;;;;;;;;;;;;;17.84;54.45;100028.19;2064452;28;19925;-66
2022/03/03 00:59:12;;;;;;;;;;;;;;;17.84;54.36;100025.47;2067117;28;19921;-65
2022/03/03 01:00:12;;;;;;;;;;;;;;;17.84;54.50;100030.06;2065311;28;20376;-65
2022/03/03 01:01:13;;;;;;;;;;;;;;;17.84;54.63;100021.88;2067437;28;20037;-65
2022/03/03 01:02:13;;;;;;;;;;;;;;;17.83;54.51;100018.28;2066903;28;19975;-65
2022/03/03 01:03:13;;;;;;;;;;;;;;;17.84;54.48;100022.75;2065707;28;19931;-65
2022/03/03 01:04:14;;;;;;;;;;;;;;;17.83;54.29;100015.53;2067336;28;20163;-65
2022/03/03 01:05:14;;;;;;;;;;;;;;;17.83;54.29;100015.53;2066261;28;19927;-65
2022/03/03 01:06:15;;;;;;;;;;;;;;;17.83;54.54;100010.09;2064538;28;19921;-65
2022/03/03 01:07:15;;;;;;;;;;;;;;;17.83;54.49;100007.38;2066249;28;19951;-66
2022/03/03 01:08:15;;;;;;;;;;;;;;;17.83;54.32;100012.81;2066864;28;19936;-65
2022/03/03 01:09:15;;;;;;;;;;;;;;;17.83;54.51;100014.69;2063242;28;19976;-65
2022/03/03 01:10:16;;;;;;;;;;;;;;;17.84;54.32;100013.72;2067002;28;19917;-65
2022/03/03 01:11:16;;;;;;;;;;;;;;;17.83;54.42;100010.09;2067684;28;20225;-65
2022/03/03 01:12:17;;;;;;;;;;;;;;;17.83;54.45;100009.25;2067786;28;20384;-65
2022/03/03 01:13:20;;;;;;;;;;;;;;;17.82;54.28;100011.09;2057589;28;20597;-65
2022/03/03 01:14:23;;;;;;;;;;;;;;;17.84;54.33;100009.09;2056546;28;20001;-65
2022/03/03 01:15:23;;;;;;;;;;;;;;;17.84;54.30;100006.38;2065557;28;19918;-64
2022/03/03 01:16:23;;;;;;;;;;;;;;;17.84;54.36;100000.06;2057703;28;19918;-66
2022/03/03 01:17:24;;;;;;;;;;;;;;;17.84;54.34;100000.94;2059171;28;19968;-66
2022/03/03 01:18:24;;;;;;;;;;;;;;;17.85;54.35;100002.63;2058589;28;19925;-64
2022/03/03 01:19:25;;;;;;;;;;;;;;;17.86;54.34;99998.03;2050656;28;19926;-65
2022/03/03 01:20:27;;;;;;;;;;;;;;;17.86;54.33;99998.91;2058232;28;20024;-66
2022/03/03 01:21:27;;;;;;;;;;;;;;;17.86;54.40;99998.91;2068064;28;19968;-66
2022/03/03 01:22:28;;;;;;;;;;;;;;;17.86;54.50;100004.38;2064151;28;20014;-66
2022/03/03 01:23:28;;;;;;;;;;;;;;;17.87;54.36;100000.63;2065143;28;19928;-65
2022/03/03 01:24:28;;;;;;;;;;;;;;;17.88;54.36;100001.47;2058019;28;19929;-65
2022/03/03 01:25:28;;;;;;;;;;;;;;;17.87;54.36;100000.63;2058339;28;19921;-65
2022/03/03 01:26:29;;;;;;;;;;;;;;;17.85;54.34;100008.09;2066062;28;19922;-65
2022/03/03 01:27:31;;;;;;;;;;;;;;;17.88;54.27;99998.75;2066922;28;19914;-65
2022/03/03 01:28:31;;;;;;;;;;;;;;;17.88;54.41;99996.88;2066058;28;20375;-65
2022/03/03 01:29:31;;;;;;;;;;;;;;;17.86;54.15;100004.38;2066196;28;20297;-65
2022/03/03 01:30:32;;;;;;;;;;;;;;;17.86;54.29;99993.47;2061690;28;19913;-66
2022/03/03 01:31:32;;;;;;;;;;;;;;;17.84;54.50;100000.06;2066378;28;20280;-65
2022/03/03 01:32:32;;;;;;;;;;;;;;;17.85;54.28;99993.59;2066291;28;20050;-65
2022/03/03 01:33:33;;;;;;;;;;;;;;;17.84;54.43;99990.03;2066481;28;19918;-65
2022/03/03 01:34:33;;;;;;;;;;;;;;;17.84;54.46;99994.63;2066468;28;20003;-64
2022/03/03 01:35:34;;;;;;;;;;;;;;;17.83;54.55;99988.28;2064983;28;19945;-65
2022/03/03 01:36:34;;;;;;;;;;;;;;;17.83;54.52;99993.72;2066605;28;19924;-65
2022/03/03 01:37:35;;;;;;;;;;;;;;;17.82;54.35;99993.91;2065338;28;19921;-65
2022/03/03 01:38:35;;;;;;;;;;;;;;;17.81;54.40;99982.13;2067279;28;19917;-65
2022/03/03 01:39:35;;;;;;;;;;;;;;;17.82;54.48;99985.72;2062375;28;19918;-65
2022/03/03 01:40:36;;;;;;;;;;;;;;;17.81;54.50;99989.44;2065631;28;19973;-65
2022/03/03 01:41:36;;;;;;;;;;;;;;;17.81;54.44;99984.88;2066366;28;19918;-65
2022/03/03 01:42:37;;;;;;;;;;;;;;;17.80;54.50;99988.56;2066335;28;20300;-65
2022/03/03 01:43:38;;;;;;;;;;;;;;;17.79;54.45;99981.38;2066584;28;19918;-64
2022/03/03 01:44:41;;;;;;;;;;;;;;;17.79;54.63;99981.38;2057799;28;20036;-65
2022/03/03 01:45:41;;;;;;;;;;;;;;;17.78;54.59;99985.09;2057869;28;20004;-64
2022/03/03 01:46:55;;;;;;;;;;;;;;;17.77;54.65;99977.94;2065824;28;20450;-64
2022/03/03 01:47:56;;;;;;;;;;;;;;;17.77;54.73;99977.94;2066828;28;20325;-65
2022/03/03 01:48:56;;;;;;;;;;;;;;;17.78;54.55;99979.66;2064506;28;19943;-65
2022/03/03 01:49:57;;;;;;;;;;;;;;;17.79;54.47;99978.66;2065774;28;19921;-65
2022/03/03 01:50:57;;;;;;;;;;;;;;;17.79;54.41;99981.38;2063405;28;20307;-64
2022/03/03 01:51:58;;;;;;;;;;;;;;;17.79;54.52;99981.38;2064402;28;19918;-65
2022/03/03 01:52:58;;;;;;;;;;;;;;;17.79;54.65;99981.38;2064756;28;19918;-65
2022/03/03 01:53:58;;;;;;;;;;;;;;;17.78;54.36;99979.66;2057390;28;19992;-65
2022/03/03 01:54:59;;;;;;;;;;;;;;;17.78;54.54;99975.06;2057470;28;19964;-65
2022/03/03 01:55:59;;;;;;;;;;;;;;;17.79;54.72;99978.66;2064005;28;20001;-65
2022/03/03 01:57:00;;;;;;;;;;;;;;;17.78;54.63;99968.72;2065659;28;20628;-65
2022/03/03 01:58:01;;;;;;;;;;;;;;;17.78;54.56;99975.06;2062384;28;19957;-65
2022/03/03 01:59:02;;;;;;;;;;;;;;;17.78;54.39;99976.91;2060071;28;20425;-65
2022/03/03 02:00:04;;;;;;;;;;;;;;;17.79;54.39;99970.47;2059121;28;19993;-65
2022/03/03 02:01:05;;;;;;;;;;;;;;;17.79;54.47;99967.75;2059530;28;20213;-65
2022/03/03 02:02:10;;;;;;;;;;;;;;;17.79;54.43;99971.34;2056950;28;20038;-64
2022/03/03 02:03:11;;;;;;;;;;;;;;;17.79;54.53;99973.19;2054683;28;19969;-65
2022/03/03 02:04:11;;;;;;;;;;;;;;;17.79;54.57;99970.47;2059285;28;19926;-65
2022/03/03 02:05:12;;;;;;;;;;;;;;;17.81;54.64;99973.06;2058304;28;19914;-65
2022/03/03 02:06:12;;;;;;;;;;;;;;;17.78;54.53;99966.00;2058379;28;19928;-65
2022/03/03 02:07:12;;;;;;;;;;;;;;;17.79;54.48;99970.47;2059350;28;19918;-65
2022/03/03 02:08:13;;;;;;;;;;;;;;;17.79;54.54;99965.88;2060788;28;19929;-64
2022/03/03 02:09:13;;;;;;;;;;;;;;;17.79;54.66;99959.56;2061156;28;20472;-65
2022/03/03 02:10:14;;;;;;;;;;;;;;;17.80;54.48;99961.31;2059830;28;19917;-66
2022/03/03 02:11:14;;;;;;;;;;;;;;;17.79;54.71;99962.28;2060113;28;19914;-65
2022/03/03 02:12:15;;;;;;;;;;;;;;;17.80;54.64;99961.31;2060237;28;19922;-65
2022/03/03 02:13:15;;;;;;;;;;;;;;;17.80;54.62;99950.41;2058879;28;19917;-66
2022/03/03 02:14:15;;;;;;;;;;;;;;;17.81;54.53;99960.31;2062297;28;19918;-66
2022/03/03 02:15:17;;;;;;;;;;;;;;;17.81;54.46;99954.88;2062939;28;19918;-65
2022/03/03 02:16:18;;;;;;;;;;;;;;;17.81;54.70;99952.16;2059689;28;19976;-65
2022/03/03 02:17:18;;;;;;;;;;;;;;;17.81;54.62;99946.69;2059489;28;19972;-65
2022/03/03 02:18:19;;;;;;;;;;;;;;;17.82;54.59;99951.13;2060800;28;20546;-65
2022/03/03 02:19:20;;;;;;;;;;;;;;;17.81;54.51;99946.69;2060122;28;19922;-64
2022/03/03 02:20:23;;;;;;;;;;;;;;;17.81;54.44;99946.69;2067657;28;20285;-64
2022/03/03 02:21:24;;;;;;;;;;;;;;;17.82;54.58;99942.94;2066833;28;19935;-64
2022/03/03 02:22:24;;;;;;;;;;;;;;;17.82;54.47;99942.94;2059295;28;19914;-64
2022/03/03 02:23:24;;;;;;;;;;;;;;;17.82;54.62;99939.38;2058777;28;20273;-64
2022/03/03 02:24:24;;;;;;;;;;;;;;;17.82;54.44;99942.94;2058675;28;19940;-64
2022/03/03 02:25:26;;;;;;;;;;;;;;;17.81;54.46;99938.50;2059818;28;19917;-65
2022/03/03 02:26:26;;;;;;;;;;;;;;;17.83;54.57;99935.63;2053519;28;19918;-65
2022/03/03 02:27:27;;;;;;;;;;;;;;;17.83;54.42;99939.19;2058723;28;19921;-65
2022/03/03 02:28:27;;;;;;;;;;;;;;;17.83;54.48;99928.28;2060132;28;19977;-65
2022/03/03 02:29:28;;;;;;;;;;;;;;;17.81;54.43;99924.88;2064600;28;20004;-65
2022/03/03 02:30:28;;;;;;;;;;;;;;;17.82;54.47;99937.50;2059344;28;20012;-65
2022/03/03 02:31:29;;;;;;;;;;;;;;;17.82;54.45;99931.19;2058965;28;19922;-65
2022/03/03 02:32:29;;;;;;;;;;;;;;;17.83;54.29;99927.44;2059282;28;19964;-66
2022/03/03 02:33:30;;;;;;;;;;;;;;;17.82;54.52;99920.28;2059232;28;19914;-65
2022/03/03 02:34:30;;;;;;;;;;;;;;;17.82;54.62;99931.19;2058941;28;19984;-65
2022/03/03 02:35:30;;;;;;;;;;;;;;;17.81;54.45;99924.88;2059890;28;20478;-65
2022/03/03 02:36:31;;;;;;;;;;;;;;;17.81;54.60;99922.16;2059413;28;20385;-65
2022/03/03 02:37:35;;;;;;;;;;;;;;;17.79;54.49;99921.41;2059931;28;19922;-65
2022/03/03 02:38:35;;;;;;;;;;;;;;;17.79;54.39;99915.94;2058145;28;19914;-64
2022/03/03 02:39:36;;;;;;;;;;;;;;;17.78;54.64;99925.13;2058063;28;19922;-65
2022/03/03 02:40:36;;;;;;;;;;;;;;;17.76;54.53;99921.66;2058959;28;19917;-65
2022/03/03 02:41:37;;;;;;;;;;;;;;;17.76;54.73;99928.00;2055786;28;19918;-63
2022/03/03 02:42:38;;;;;;;;;;;;;;;17.75;54.67;99925.41;2059872;28;19914;-64
2022/03/03 02:43:38;;;;;;;;;;;;;;;17.76;54.66;99928.00;2059836;28;19924;-65
2022/03/03 02:44:38;;;;;;;;;;;;;;;17.75;54.64;99915.34;2059688;28;19914;-65
2022/03/03 02:45:38;;;;;;;;;;;;;;;17.76;54.78;99927.13;2060677;28;20380;-65
2022/03/03 02:46:39;;;;;;;;;;;;;;;17.75;54.83;99922.69;2059055;28;20417;-65
2022/03/03 02:47:40;;;;;;;;;;;;;;;17.75;54.57;99925.41;2059273;28;19906;-64
2022/03/03 02:48:41;;;;;;;;;;;;;;;17.74;54.63;99920.97;2059590;28;20425;-66
2022/03/03 02:49:41;;;;;;;;;;;;;;;17.74;54.61;99924.56;2059179;28;20629;-65
2022/03/03 02:50:41;;;;;;;;;;;;;;;17.75;54.69;99926.25;2058607;28;19917;-65
2022/03/03 02:51:43;;;;;;;;;;;;;;;17.75;54.53;99914.50;2060572;28;20605;-65
2022/03/03 02:52:43;;;;;;;;;;;;;;;17.75;54.50;99915.34;2058622;28;19992;-65
2022/03/03 02:53:44;;;;;;;;;;;;;;;17.75;54.77;99915.34;2060583;28;19941;-66
2022/03/03 02:54:44;;;;;;;;;;;;;;;17.75;54.64;99914.50;2058626;28;19921;-64
2022/03/03 02:55:45;;;;;;;;;;;;;;;17.76;54.67;99910.75;2058118;28;19945;-64
2022/03/03 02:58:05;;;;;;;;;;;;;;;17.75;54.51;99906.34;2061189;28;19921;-65
2022/03/03 02:59:05;;;;;;;;;;;;;;;17.76;54.59;99910.75;2063921;28;20266;-65
2022/03/03 03:00:06;;;;;;;;;;;;;;;17.75;54.79;99909.91;2060834;28;20800;-65
2022/03/03 03:01:06;;;;;;;;;;;;;;;17.76;54.56;99908.03;2061239;28;20301;-65
2022/03/03 03:02:07;;;;;;;;;;;;;;;17.76;54.77;99910.75;2057459;28;19906;-65
2022/03/03 03:03:07;;;;;;;;;;;;;;;17.77;54.47;99904.31;2059666;28;19924;-65
2022/03/03 03:04:08;;;;;;;;;;;;;;;17.77;54.65;99901.59;2064321;28;19960;-66
2022/03/03 03:05:08;;;;;;;;;;;;;;;17.78;54.45;99903.31;2059986;28;20008;-64
2022/03/03 03:06:11;;;;;;;;;;;;;;;17.78;54.49;99897.84;2060100;28;19922;-65
2022/03/03 03:07:12;;;;;;;;;;;;;;;17.78;54.65;99897.84;2057446;28;20442;-65
2022/03/03 03:08:13;;;;;;;;;;;;;;;17.79;54.55;99899.59;2058036;28;19925;-65
2022/03/03 03:09:13;;;;;;;;;;;;;;;17.79;54.49;99896.88;2065186;28;19930;-65
2022/03/03 03:10:14;;;;;;;;;;;;;;;17.79;54.64;99894.13;2058686;28;20352;-65
2022/03/03 03:11:14;;;;;;;;;;;;;;;17.78;54.66;99892.41;2060379;28;20245;-65
2022/03/03 03:12:14;;;;;;;;;;;;;;;17.79;54.69;99894.13;2059614;28;20340;-65
2022/03/03 03:13:14;;;;;;;;;;;;;;;17.80;54.60;99895.88;2058237;28;20147;-65
2022/03/03 03:14:15;;;;;;;;;;;;;;;17.79;54.57;99884.09;2063219;28;20388;-65
2022/03/03 03:15:15;;;;;;;;;;;;;;;17.79;54.71;99889.53;2058243;28;20147;-66
2022/03/03 03:16:16;;;;;;;;;;;;;;;17.79;54.53;99888.69;2059690;28;20350;-64
2022/03/03 03:17:16;;;;;;;;;;;;;;;17.80;54.57;99893.16;2061386;28;20693;-65
2022/03/03 03:18:18;;;;;;;;;;;;;;;17.79;54.74;99895.00;2058223;28;20126;-64
2022/03/03 03:19:18;;;;;;;;;;;;;;;17.80;54.44;99887.69;2059964;28;19926;-65
2022/03/03 03:20:19;;;;;;;;;;;;;;;17.79;54.66;99884.09;2062362;28;19914;-66
2022/03/03 03:21:19;;;;;;;;;;;;;;;17.80;54.48;99884.97;2057754;28;19965;-66
2022/03/03 03:22:19;;;;;;;;;;;;;;;17.80;54.59;99893.16;2062696;28;19937;-65
2022/03/03 03:23:22;;;;;;;;;;;;;;;17.81;54.72;99889.44;2067155;28;19909;-66
2022/03/03 03:24:22;;;;;;;;;;;;;;;17.80;54.43;99884.97;2057680;28;20507;-65
2022/03/03 03:25:22;;;;;;;;;;;;;;;17.79;54.65;99885.97;2057574;28;20285;-65
2022/03/03 03:26:23;;;;;;;;;;;;;;;17.78;54.65;99887.81;2067415;28;20335;-65
2022/03/03 03:27:23;;;;;;;;;;;;;;;17.79;54.48;99888.69;2067524;28;19928;-65
2022/03/03 03:28:24;;;;;;;;;;;;;;;17.80;54.63;99882.25;2067027;28;19925;-65
2022/03/03 03:29:25;;;;;;;;;;;;;;;17.80;54.45;99879.50;2068507;28;20668;-65
2022/03/03 03:30:25;;;;;;;;;;;;;;;17.80;54.72;99890.41;2066391;28;20444;-65
2022/03/03 03:31:27;;;;;;;;;;;;;;;17.80;54.40;99884.97;2059390;28;19977;-65
2022/03/03 03:32:27;;;;;;;;;;;;;;;17.81;54.65;99885.81;2058702;28;20027;-65
2022/03/03 03:33:27;;;;;;;;;;;;;;;17.81;54.72;99889.44;2065154;28;20184;-65
2022/03/03 03:34:28;;;;;;;;;;;;;;;17.80;54.53;99876.78;2067173;28;20441;-65
2022/03/03 03:35:28;;;;;;;;;;;;;;;17.81;54.68;99886.72;2066993;28;19921;-65
2022/03/03 03:36:28;;;;;;;;;;;;;;;17.80;54.64;99879.50;2068518;28;19920;-64
2022/03/03 03:37:29;;;;;;;;;;;;;;;17.79;54.77;99884.09;2067171;28;19909;-65
2022/03/03 03:38:29;;;;;;;;;;;;;;;17.79;54.74;99884.09;2067497;28;19925;-64
2022/03/03 03:39:30;;;;;;;;;;;;;;;17.79;54.57;99880.50;2058286;28;20373;-64
2022/03/03 03:40:30;;;;;;;;;;;;;;;17.79;54.45;99877.78;2058242;28;20012;-67
2022/03/03 03:41:31;;;;;;;;;;;;;;;17.79;54.59;99885.97;2062038;28;19914;-66
2022/03/03 03:42:31;;;;;;;;;;;;;;;17.78;54.47;99881.50;2058806;28;20328;-65
2022/03/03 03:43:32;;;;;;;;;;;;;;;17.78;54.47;99878.75;2059525;28;20061;-65
2022/03/03 03:44:32;;;;;;;;;;;;;;;17.77;54.79;99874.34;2067312;28;19925;-64
2022/03/03 03:45:34;;;;;;;;;;;;;;;17.77;54.74;99874.34;2068063;28;19913;-64
2022/03/03 03:46:34;;;;;;;;;;;;;;;17.77;54.58;99877.06;2064241;28;19972;-65
2022/03/03 03:47:34;;;;;;;;;;;;;;;17.75;54.79;99877.19;2067185;28;19944;-65
2022/03/03 03:48:35;;;;;;;;;;;;;;;17.74;54.63;99875.50;2059135;28;19921;-65
2022/03/03 03:49:35;;;;;;;;;;;;;;;17.75;54.91;99873.63;2058440;28;19914;-65
2022/03/03 03:50:35;;;;;;;;;;;;;;;17.74;54.79;99874.63;2067124;28;20233;-65
2022/03/03 03:51:36;;;;;;;;;;;;;;;17.73;54.88;99878.34;2064361;28;19918;-65
2022/03/03 03:52:37;;;;;;;;;;;;;;;17.73;54.71;99875.63;2068091;28;20435;-65
2022/03/03 03:53:37;;;;;;;;;;;;;;;17.72;54.88;99874.75;2072037;28;20340;-65
2022/03/03 03:54:38;;;;;;;;;;;;;;;17.72;54.77;99871.19;2064643;28;19984;-65
2022/03/03 03:55:38;;;;;;;;;;;;;;;17.72;54.71;99871.19;2065380;28;20369;-65
2022/03/03 03:56:38;;;;;;;;;;;;;;;17.72;54.88;99871.19;2068025;28;20291;-65
2022/03/03 03:57:39;;;;;;;;;;;;;;;17.72;54.91;99865.75;2066786;28;19914;-66
2022/03/03 03:58:39;;;;;;;;;;;;;;;17.71;54.79;99870.34;2058914;28;20368;-65
2022/03/03 03:59:40;;;;;;;;;;;;;;;17.72;55.03;99868.47;2058693;28;19939;-65
2022/03/03 04:00:40;;;;;;;;;;;;;;;17.72;54.77;99871.19;2058568;28;20017;-65
2022/03/03 04:01:41;;;;;;;;;;;;;;;17.73;54.95;99867.44;2050590;28;19942;-65
2022/03/03 04:02:42;;;;;;;;;;;;;;;17.73;54.97;99864.72;2050706;28;19929;-65
2022/03/03 04:03:42;;;;;;;;;;;;;;;17.73;54.87;99864.72;2063052;28;19926;-65
2022/03/03 04:04:43;;;;;;;;;;;;;;;17.72;54.66;99863.88;2060784;28;19953;-65
2022/03/03 04:05:43;;;;;;;;;;;;;;;17.72;54.77;99865.75;2062554;28;19972;-65
2022/03/03 04:06:43;;;;;;;;;;;;;;;17.74;54.69;99864.59;2067478;28;20041;-66
2022/03/03 04:07:44;;;;;;;;;;;;;;;17.73;54.77;99857.38;2066214;28;19948;-65
2022/03/03 04:08:44;;;;;;;;;;;;;;;17.75;54.88;99859.97;2067565;28;19917;-65
2022/03/03 04:09:45;;;;;;;;;;;;;;;17.75;54.78;99854.53;2063874;28;19921;-65
2022/03/03 04:10:47;;;;;;;;;;;;;;;17.76;54.73;99856.22;2067394;28;20004;-64
2022/03/03 04:11:47;;;;;;;;;;;;;;;17.76;54.57;99857.13;2067459;28;19964;-65
2022/03/03 04:12:48;;;;;;;;;;;;;;;17.77;54.80;99856.09;2067204;28;19968;-63
2022/03/03 04:13:48;;;;;;;;;;;;;;;17.77;54.72;99857.97;2067038;28;19920;-64
2022/03/03 04:14:48;;;;;;;;;;;;;;;17.78;54.66;99848.78;2072746;28;19917;-65
2022/03/03 04:15:49;;;;;;;;;;;;;;;17.77;54.67;99857.97;2067033;28;19918;-65
2022/03/03 04:16:49;;;;;;;;;;;;;;;17.77;54.64;99852.53;2068001;28;20284;-65
2022/03/03 04:17:51;;;;;;;;;;;;;;;17.77;54.66;99850.66;2066715;28;19921;-65
2022/03/03 04:18:51;;;;;;;;;;;;;;;17.78;54.55;99854.22;2058673;28;19914;-65
2022/03/03 04:19:51;;;;;;;;;;;;;;;17.77;54.72;99853.38;2058047;28;19918;-65
2022/03/03 04:20:52;;;;;;;;;;;;;;;17.76;54.73;99853.50;2060549;28;19941;-65
2022/03/03 04:21:52;;;;;;;;;;;;;;;17.77;54.79;99856.09;2058611;28;19925;-65
2022/03/03 04:22:52;;;;;;;;;;;;;;;17.76;54.76;99848.94;2057202;28;19968;-65
2022/03/03 04:23:53;;;;;;;;;;;;;;;17.76;54.93;99856.22;2050627;28;20278;-65
2022/03/03 04:24:53;;;;;;;;;;;;;;;17.76;54.68;99851.66;2058006;28;19960;-65
2022/03/03 04:25:54;;;;;;;;;;;;;;;17.75;54.64;99849.06;2066391;28;20024;-66
2022/03/03 04:26:54;;;;;;;;;;;;;;;17.76;54.77;99850.78;2067256;28;20058;-65
2022/03/03 04:27:54;;;;;;;;;;;;;;;17.76;54.75;99842.59;2064944;28;20000;-64
2022/03/03 04:28:55;;;;;;;;;;;;;;;17.76;54.60;99845.34;2067098;28;19917;-66
2022/03/03 04:29:55;;;;;;;;;;;;;;;17.74;54.71;99837.31;2068998;28;20256;-65
2022/03/03 04:30:55;;;;;;;;;;;;;;;17.74;54.82;99837.31;2068198;28;19914;-65
2022/03/03 04:31:57;;;;;;;;;;;;;;;17.75;54.84;99838.16;2067772;28;19913;-65
2022/03/03 04:32:58;;;;;;;;;;;;;;;17.75;54.64;99838.16;2066311;28;19914;-65
2022/03/03 04:33:58;;;;;;;;;;;;;;;17.75;54.77;99838.16;2067822;28;19917;-65
2022/03/03 04:34:58;;;;;;;;;;;;;;;17.75;54.82;99838.16;2064380;28;20163;-64
2022/03/03 04:35:59;;;;;;;;;;;;;;;17.76;54.69;99832.59;2064029;28;19917;-65
2022/03/03 04:36:59;;;;;;;;;;;;;;;17.76;54.77;99834.44;2066564;28;20158;-66
2022/03/03 04:37:59;;;;;;;;;;;;;;;17.75;54.71;99832.72;2066622;28;20392;-65
2022/03/03 04:39:00;;;;;;;;;;;;;;;17.75;54.66;99824.53;2067339;28;20336;-66
2022/03/03 04:40:00;;;;;;;;;;;;;;;17.76;54.69;99828.97;2068976;28;20659;-65
2022/03/03 04:41:00;;;;;;;;;;;;;;;17.75;54.73;99828.13;2068879;28;19918;-65
2022/03/03 04:42:01;;;;;;;;;;;;;;;17.74;54.72;99825.56;2067370;28;20114;-65
2022/03/03 04:43:01;;;;;;;;;;;;;;;17.74;54.69;99829.13;2063747;28;20713;-65
2022/03/03 04:44:02;;;;;;;;;;;;;;;17.74;54.86;99828.28;2067243;28;19918;-66
2022/03/03 04:45:02;;;;;;;;;;;;;;;17.74;54.71;99831.00;2065744;28;20066;-65
2022/03/03 04:46:03;;;;;;;;;;;;;;;17.73;54.81;99829.28;2067531;28;20561;-65
2022/03/03 04:47:03;;;;;;;;;;;;;;;17.72;54.83;99836.59;2066875;28;20022;-64
2022/03/03 04:48:04;;;;;;;;;;;;;;;17.71;54.74;99842.19;2059243;28;19918;-65
2022/03/03 04:49:04;;;;;;;;;;;;;;;17.72;54.82;99838.47;2061590;28;19928;-65
2022/03/03 04:50:05;;;;;;;;;;;;;;;17.72;54.81;99838.47;2066344;28;20360;-66
2022/03/03 04:51:05;;;;;;;;;;;;;;;17.71;54.88;99840.34;2066214;28;20313;-66
2022/03/03 04:52:06;;;;;;;;;;;;;;;17.72;54.85;99839.31;2066868;28;19918;-65
2022/03/03 04:53:06;;;;;;;;;;;;;;;17.71;54.82;99834.00;2065197;28;19922;-65
2022/03/03 04:54:08;;;;;;;;;;;;;;;17.71;54.82;99828.56;2059001;28;19917;-64
2022/03/03 04:55:08;;;;;;;;;;;;;;;17.70;55.03;99824.97;2061730;28;20388;-65
2022/03/03 04:56:09;;;;;;;;;;;;;;;17.71;54.86;99820.38;2058571;28;19945;-65
2022/03/03 04:57:09;;;;;;;;;;;;;;;17.71;55.13;99825.84;2057525;28;19945;-65
2022/03/03 04:58:10;;;;;;;;;;;;;;;17.72;54.76;99827.56;2062130;28;20349;-66
2022/03/03 04:59:10;;;;;;;;;;;;;;;17.71;54.89;99824.00;2066544;28;19921;-64
2022/03/03 05:00:11;;;;;;;;;;;;;;;17.71;54.89;99825.84;2066341;28;19949;-65
2022/03/03 05:01:11;;;;;;;;;;;;;;;17.72;55.10;99827.56;2058344;28;19989;-65
2022/03/03 05:02:12;;;;;;;;;;;;;;;17.72;54.89;99830.28;2058279;28;20455;-65
2022/03/03 05:03:12;;;;;;;;;;;;;;;17.71;54.90;99826.72;2058091;28;19921;-64
2022/03/03 05:04:12;;;;;;;;;;;;;;;17.72;54.95;99820.25;2057523;28;19989;-66
2022/03/03 05:05:13;;;;;;;;;;;;;;;17.72;54.98;99827.56;2067158;28;19918;-65
2022/03/03 05:06:13;;;;;;;;;;;;;;;17.73;55.02;99818.38;2057838;28;19925;-65
2022/03/03 05:07:14;;;;;;;;;;;;;;;17.73;54.98;99824.69;2053183;28;19969;-68
2022/03/03 05:08:14;;;;;;;;;;;;;;;17.74;55.00;99818.25;2057017;28;20347;-67
2022/03/03 05:09:15;;;;;;;;;;;;;;;17.74;54.84;99825.56;2051397;28;20768;-68
2022/03/03 05:10:15;;;;;;;;;;;;;;;17.74;54.88;99820.97;2047599;28;20004;-67
2022/03/03 05:11:16;;;;;;;;;;;;;;;17.75;54.91;99819.09;2048596;28;20063;-68
2022/03/03 05:12:16;;;;;;;;;;;;;;;17.75;54.99;99824.53;2048348;28;19956;-68
2022/03/03 05:13:16;;;;;;;;;;;;;;;17.75;54.90;99819.09;2056816;28;19933;-67
2022/03/03 05:14:17;;;;;;;;;;;;;;;17.75;54.91;99824.53;2050995;28;19922;-68
2022/03/03 05:15:17;;;;;;;;;;;;;;;17.75;54.76;99822.66;2047474;28;19922;-68